Terminal Aerodrome Forecast
Issued by NWS

Home | Current Version | Previous Version | Text Only | Print | Product List | Glossary On
Versions: 1 2 3 4 5 6 7 8 9 10 11 12 13 14 15 16 17 18 19 20 21 22 23
000
FTUS43 KIND 030500
TAFBMG
TAF
KBMG 030525Z 0306/0406 05005KT P6SM SCT050 BKN080
     FM030800 06004KT 6SM BR SCT008 BKN018 OVC035
     FM032100 04006KT P6SM BKN020
      AMD LTD TO CLD VIS AND WIND TIL 031300=

USA.gov is the U.S. government's official web portal to all federal, state and local government web resources and services.